sensor_id;sensor_type;location;lat;lon;timestamp;pressure;altitude;pressure_sealevel;temperature;humidity
22651;BME280;11492;42.646;23.400;2023-05-17T00:01:41;94449.22;;;15.68;75.81
22651;BME280;11492;42.646;23.400;2023-05-17T00:04:06;94454.72;;;15.60;76.17
22651;BME280;11492;42.646;23.400;2023-05-17T00:06:32;94459.53;;;15.46;76.16
22651;BME280;11492;42.646;23.400;2023-05-17T00:08:59;94461.00;;;15.42;76.33
22651;BME280;11492;42.646;23.400;2023-05-17T00:11:24;94448.72;;;15.31;76.23
22651;BME280;11492;42.646;23.400;2023-05-17T00:13:50;94434.28;;;15.35;76.18
22651;BME280;11492;42.646;23.400;2023-05-17T00:16:15;94443.81;;;15.41;76.90
22651;BME280;11492;42.646;23.400;2023-05-17T00:18:41;94442.88;;;15.35;77.06
22651;BME280;11492;42.646;23.400;2023-05-17T00:21:06;94438.53;;;15.18;76.60
22651;BME280;11492;42.646;23.400;2023-05-17T00:23:31;94437.94;;;14.98;76.53
22651;BME280;11492;42.646;23.400;2023-05-17T00:25:57;94440.28;;;15.06;76.88
22651;BME280;11492;42.646;23.400;2023-05-17T00:28:22;94447.41;;;15.11;77.38
22651;BME280;11492;42.646;23.400;2023-05-17T00:30:48;94454.28;;;15.05;77.87
22651;BME280;11492;42.646;23.400;2023-05-17T00:33:13;94454.56;;;14.97;77.55
22651;BME280;11492;42.646;23.400;2023-05-17T00:35:38;94452.84;;;14.92;77.88
22651;BME280;11492;42.646;23.400;2023-05-17T00:38:04;94439.53;;;14.82;77.72
22651;BME280;11492;42.646;23.400;2023-05-17T00:40:30;94448.13;;;14.82;78.34
22651;BME280;11492;42.646;23.400;2023-05-17T00:42:55;94453.63;;;14.74;78.35
22651;BME280;11492;42.646;23.400;2023-05-17T00:45:21;94455.72;;;14.66;78.48
22651;BME280;11492;42.646;23.400;2023-05-17T00:47:47;94455.28;;;14.51;79.15
22651;BME280;11492;42.646;23.400;2023-05-17T00:50:12;94458.22;;;14.37;79.35
22651;BME280;11492;42.646;23.400;2023-05-17T00:52:38;94452.59;;;14.40;79.71
22651;BME280;11492;42.646;23.400;2023-05-17T00:55:04;94452.94;;;14.44;79.95
22651;BME280;11492;42.646;23.400;2023-05-17T00:57:30;94457.41;;;14.37;79.17
22651;BME280;11492;42.646;23.400;2023-05-17T00:59:56;94463.22;;;14.39;79.34
22651;BME280;11492;42.646;23.400;2023-05-17T01:02:22;94467.81;;;14.37;78.58
22651;BME280;11492;42.646;23.400;2023-05-17T01:04:48;94452.53;;;14.29;79.01
22651;BME280;11492;42.646;23.400;2023-05-17T01:07:14;94463.22;;;14.39;79.08
22651;BME280;11492;42.646;23.400;2023-05-17T01:09:40;94470.19;;;14.38;79.08
22651;BME280;11492;42.646;23.400;2023-05-17T01:15:14;94452.72;;;14.27;79.00
22651;BME280;11492;42.646;23.400;2023-05-17T01:18:15;94460.72;;;14.26;79.25
22651;BME280;11492;42.646;23.400;2023-05-17T01:20:46;94459.00;;;14.20;79.36
22651;BME280;11492;42.646;23.400;2023-05-17T01:23:26;94468.13;;;14.05;79.74
22651;BME280;11492;42.646;23.400;2023-05-17T01:26:14;94465.78;;;13.91;79.74
22651;BME280;11492;42.646;23.400;2023-05-17T01:28:43;94459.13;;;13.77;79.96
22651;BME280;11492;42.646;23.400;2023-05-17T01:31:10;94449.31;;;13.79;79.81
22651;BME280;11492;42.646;23.400;2023-05-17T01:33:36;94467.50;;;13.79;79.73
22651;BME280;11492;42.646;23.400;2023-05-17T01:36:02;94453.00;;;13.71;79.44
22651;BME280;11492;42.646;23.400;2023-05-17T01:38:27;94463.16;;;13.73;79.58
22651;BME280;11492;42.646;23.400;2023-05-17T01:43:40;94459.72;;;13.79;79.62
22651;BME280;11492;42.646;23.400;2023-05-17T01:46:21;94456.69;;;13.82;79.45
22651;BME280;11492;42.646;23.400;2023-05-17T01:49:38;94461.06;;;13.81;79.61
22651;BME280;11492;42.646;23.400;2023-05-17T01:51:45;94452.50;;;13.81;79.53
22651;BME280;11492;42.646;23.400;2023-05-17T01:54:12;94455.19;;;13.68;79.67
22651;BME280;11492;42.646;23.400;2023-05-17T01:56:45;94440.88;;;13.59;79.48
22651;BME280;11492;42.646;23.400;2023-05-17T01:59:14;94446.19;;;13.70;79.90
22651;BME280;11492;42.646;23.400;2023-05-17T02:01:44;94447.63;;;13.67;79.57
22651;BME280;11492;42.646;23.400;2023-05-17T02:04:11;94461.56;;;13.72;79.58
22651;BME280;11492;42.646;23.400;2023-05-17T02:06:36;94454.41;;;13.68;80.09
22651;BME280;11492;42.646;23.400;2023-05-17T02:09:02;94452.81;;;13.67;79.85
22651;BME280;11492;42.646;23.400;2023-05-17T02:11:27;94449.22;;;13.68;79.71
22651;BME280;11492;42.646;23.400;2023-05-17T02:13:53;94446.13;;;13.53;80.33
22651;BME280;11492;42.646;23.400;2023-05-17T02:16:18;94453.81;;;13.66;80.42
22651;BME280;11492;42.646;23.400;2023-05-17T02:18:44;94444.25;;;13.66;79.55
22651;BME280;11492;42.646;23.400;2023-05-17T02:21:09;94444.38;;;13.71;79.99
22651;BME280;11492;42.646;23.400;2023-05-17T02:23:36;94430.09;;;13.62;79.50
22651;BME280;11492;42.646;23.400;2023-05-17T02:26:02;94444.81;;;13.68;79.65
22651;BME280;11492;42.646;23.400;2023-05-17T02:28:27;94443.25;;;13.61;79.57
22651;BME280;11492;42.646;23.400;2023-05-17T02:30:52;94442.00;;;13.70;79.61
22651;BME280;11492;42.646;23.400;2023-05-17T02:33:18;94441.06;;;13.64;79.83
22651;BME280;11492;42.646;23.400;2023-05-17T02:35:44;94439.53;;;13.57;79.88
22651;BME280;11492;42.646;23.400;2023-05-17T02:38:09;94450.63;;;13.64;80.28
22651;BME280;11492;42.646;23.400;2023-05-17T02:40:35;94452.84;;;13.60;80.17
22651;BME280;11492;42.646;23.400;2023-05-17T02:43:00;94455.44;;;13.60;80.24
22651;BME280;11492;42.646;23.400;2023-05-17T02:45:25;94454.25;;;13.63;80.56
22651;BME280;11492;42.646;23.400;2023-05-17T02:47:51;94460.00;;;13.65;80.17
22651;BME280;11492;42.646;23.400;2023-05-17T02:50:17;94454.06;;;13.58;80.75
22651;BME280;11492;42.646;23.400;2023-05-17T02:52:42;94477.16;;;13.66;80.81
22651;BME280;11492;42.646;23.400;2023-05-17T02:55:08;94482.56;;;13.64;80.42
22651;BME280;11492;42.646;23.400;2023-05-17T02:57:33;94471.06;;;13.54;80.71
22651;BME280;11492;42.646;23.400;2023-05-17T02:59:59;94473.25;;;13.57;80.45
22651;BME280;11492;42.646;23.400;2023-05-17T03:02:24;94479.63;;;13.54;80.35
22651;BME280;11492;42.646;23.400;2023-05-17T03:04:50;94486.22;;;13.57;80.88
22651;BME280;11492;42.646;23.400;2023-05-17T03:07:15;94477.09;;;13.48;81.07
22651;BME280;11492;42.646;23.400;2023-05-17T03:09:40;94492.59;;;13.54;81.20
22651;BME280;11492;42.646;23.400;2023-05-17T03:12:07;94492.66;;;13.48;81.36
22651;BME280;11492;42.646;23.400;2023-05-17T03:14:32;94500.03;;;13.51;81.14
22651;BME280;11492;42.646;23.400;2023-05-17T03:16:58;94497.63;;;13.49;81.11
22651;BME280;11492;42.646;23.400;2023-05-17T03:19:23;94504.25;;;13.46;80.81
22651;BME280;11492;42.646;23.400;2023-05-17T03:21:49;94507.66;;;13.40;81.20
22651;BME280;11492;42.646;23.400;2023-05-17T03:24:14;94503.28;;;13.34;81.75
22651;BME280;11492;42.646;23.400;2023-05-17T03:26:39;94496.91;;;13.30;81.83
22651;BME280;11492;42.646;23.400;2023-05-17T03:29:05;94496.91;;;13.36;82.14
22651;BME280;11492;42.646;23.400;2023-05-17T03:31:30;94483.81;;;13.25;82.24
22651;BME280;11492;42.646;23.400;2023-05-17T03:33:56;94502.72;;;13.32;82.29
22651;BME280;11492;42.646;23.400;2023-05-17T03:36:22;94493.13;;;13.32;82.07
22651;BME280;11492;42.646;23.400;2023-05-17T03:38:47;94500.69;;;13.34;82.53
22651;BME280;11492;42.646;23.400;2023-05-17T03:41:12;94497.09;;;13.35;82.68
22651;BME280;11492;42.646;23.400;2023-05-17T03:43:38;94501.72;;;13.33;82.21
22651;BME280;11492;42.646;23.400;2023-05-17T03:46:03;94493.53;;;13.29;82.78
22651;BME280;11492;42.646;23.400;2023-05-17T03:48:29;94492.91;;;13.34;83.05
22651;BME280;11492;42.646;23.400;2023-05-17T03:50:54;94498.88;;;13.41;82.84
22651;BME280;11492;42.646;23.400;2023-05-17T03:53:20;94499.63;;;13.47;82.59
22651;BME280;11492;42.646;23.400;2023-05-17T03:55:46;94498.84;;;13.47;82.02
22651;BME280;11492;42.646;23.400;2023-05-17T03:58:11;94497.63;;;13.49;82.49
22651;BME280;11492;42.646;23.400;2023-05-17T04:00:36;94496.81;;;13.49;81.98
22651;BME280;11492;42.646;23.400;2023-05-17T04:03:02;94502.41;;;13.52;82.43
22651;BME280;11492;42.646;23.400;2023-05-17T04:05:27;94499.63;;;13.47;82.58
22651;BME280;11492;42.646;23.400;2023-05-17T04:07:53;94508.59;;;13.51;82.69
22651;BME280;11492;42.646;23.400;2023-05-17T04:10:18;94495.00;;;13.56;82.91
22651;BME280;11492;42.646;23.400;2023-05-17T04:12:44;94508.13;;;13.61;83.18
22651;BME280;11492;42.646;23.400;2023-05-17T04:15:09;94515.56;;;13.81;84.19
22651;BME280;11492;42.646;23.400;2023-05-17T04:17:35;94507.97;;;13.93;84.60
22651;BME280;11492;42.646;23.400;2023-05-17T04:20:01;94512.78;;;14.13;83.83
22651;BME280;11492;42.646;23.400;2023-05-17T04:22:26;94514.56;;;14.37;83.27
22651;BME280;11492;42.646;23.400;2023-05-17T04:24:52;94510.84;;;14.50;82.23
22651;BME280;11492;42.646;23.400;2023-05-17T04:27:17;94507.31;;;14.63;81.55
22651;BME280;11492;42.646;23.400;2023-05-17T04:29:43;94517.38;;;14.77;80.48
22651;BME280;11492;42.646;23.400;2023-05-17T04:32:08;94506.69;;;14.85;79.12
22651;BME280;11492;42.646;23.400;2023-05-17T04:34:34;94506.50;;;14.86;78.52
22651;BME280;11492;42.646;23.400;2023-05-17T04:36:59;94500.50;;;14.86;78.32
22651;BME280;11492;42.646;23.400;2023-05-17T04:39:25;94503.25;;;14.91;77.40
22651;BME280;11492;42.646;23.400;2023-05-17T04:41:50;94506.00;;;14.96;77.27
22651;BME280;11492;42.646;23.400;2023-05-17T04:44:16;94507.91;;;15.00;78.23
22651;BME280;11492;42.646;23.400;2023-05-17T04:46:42;94498.19;;;15.13;77.33
22651;BME280;11492;42.646;23.400;2023-05-17T04:49:08;94492.91;;;15.20;76.77
22651;BME280;11492;42.646;23.400;2023-05-17T04:51:34;94499.56;;;15.33;75.76
22651;BME280;11492;42.646;23.400;2023-05-17T04:53:59;94491.78;;;15.45;76.22
22651;BME280;11492;42.646;23.400;2023-05-17T04:56:25;94497.78;;;15.45;75.17
22651;BME280;11492;42.646;23.400;2023-05-17T04:58:51;94496.81;;;15.57;74.99
22651;BME280;11492;42.646;23.400;2023-05-17T05:01:16;94501.06;;;15.70;75.17
22651;BME280;11492;42.646;23.400;2023-05-17T05:03:42;94497.13;;;15.78;74.32
22651;BME280;11492;42.646;23.400;2023-05-17T05:06:07;94503.59;;;15.87;74.63
22651;BME280;11492;42.646;23.400;2023-05-17T05:08:33;94506.69;;;15.96;73.91
22651;BME280;11492;42.646;23.400;2023-05-17T05:10:58;94503.59;;;15.98;72.99
22651;BME280;11492;42.646;23.400;2023-05-17T05:13:24;94513.25;;;15.98;73.23
22651;BME280;11492;42.646;23.400;2023-05-17T05:15:49;94504.63;;;15.97;73.01
22651;BME280;11492;42.646;23.400;2023-05-17T05:18:15;94515.41;;;16.01;71.93
22651;BME280;11492;42.646;23.400;2023-05-17T05:20:40;94518.00;;;16.01;72.08
22651;BME280;11492;42.646;23.400;2023-05-17T05:23:06;94519.81;;;16.00;71.54
22651;BME280;11492;42.646;23.400;2023-05-17T05:25:31;94505.66;;;15.96;72.23
22651;BME280;11492;42.646;23.400;2023-05-17T05:27:57;94506.56;;;16.02;71.67
22651;BME280;11492;42.646;23.400;2023-05-17T05:30:22;94512.28;;;16.10;71.56
22651;BME280;11492;42.646;23.400;2023-05-17T05:32:48;94509.59;;;16.17;70.76
22651;BME280;11492;42.646;23.400;2023-05-17T05:35:14;94509.16;;;16.31;70.64
22651;BME280;11492;42.646;23.400;2023-05-17T05:37:41;94508.25;;;16.37;69.46
22651;BME280;11492;42.646;23.400;2023-05-17T05:40:07;94509.59;;;16.50;69.48
22651;BME280;11492;42.646;23.400;2023-05-17T05:42:33;94516.06;;;16.59;69.22
22651;BME280;11492;42.646;23.400;2023-05-17T05:44:58;94511.75;;;16.76;69.97
22651;BME280;11492;42.646;23.400;2023-05-17T05:47:24;94499.63;;;16.81;68.86
22651;BME280;11492;42.646;23.400;2023-05-17T05:49:50;94512.69;;;16.93;67.59
22651;BME280;11492;42.646;23.400;2023-05-17T05:52:15;94513.25;;;17.06;67.41
22651;BME280;11492;42.646;23.400;2023-05-17T05:54:41;94517.63;;;17.17;67.38
22651;BME280;11492;42.646;23.400;2023-05-17T05:57:06;94521.72;;;17.24;65.34
22651;BME280;11492;42.646;23.400;2023-05-17T05:59:31;94526.25;;;17.28;65.88
22651;BME280;11492;42.646;23.400;2023-05-17T06:01:57;94527.22;;;17.39;66.05
22651;BME280;11492;42.646;23.400;2023-05-17T06:04:23;94534.81;;;17.51;66.36
22651;BME280;11492;42.646;23.400;2023-05-17T06:06:49;94540.38;;;17.55;64.84
22651;BME280;11492;42.646;23.400;2023-05-17T06:09:15;94535.84;;;17.50;64.70
22651;BME280;11492;42.646;23.400;2023-05-17T06:11:40;94537.03;;;17.59;64.91
22651;BME280;11492;42.646;23.400;2023-05-17T06:14:06;94520.03;;;17.57;64.04
22651;BME280;11492;42.646;23.400;2023-05-17T06:16:33;94533.47;;;17.76;64.40
22651;BME280;11492;42.646;23.400;2023-05-17T06:18:59;94538.41;;;17.89;64.01
22651;BME280;11492;42.646;23.400;2023-05-17T06:21:24;94533.66;;;17.98;63.16
22651;BME280;11492;42.646;23.400;2023-05-17T06:23:50;94533.97;;;17.90;63.40
22651;BME280;11492;42.646;23.400;2023-05-17T06:26:15;94550.34;;;17.97;63.79
22651;BME280;11492;42.646;23.400;2023-05-17T06:28:41;94548.53;;;17.97;63.60
22651;BME280;11492;42.646;23.400;2023-05-17T06:31:06;94549.09;;;17.88;64.31
22651;BME280;11492;42.646;23.400;2023-05-17T06:33:31;94544.13;;;17.86;64.25
22651;BME280;11492;42.646;23.400;2023-05-17T06:35:57;94549.66;;;17.90;64.62
22651;BME280;11492;42.646;23.400;2023-05-17T06:38:23;94538.66;;;17.88;64.20
22651;BME280;11492;42.646;23.400;2023-05-17T06:40:54;94541.41;;;17.81;64.02
22651;BME280;11492;42.646;23.400;2023-05-17T06:43:21;94545.66;;;17.71;64.96
22651;BME280;11492;42.646;23.400;2023-05-17T06:45:47;94541.97;;;17.56;65.67
22651;BME280;11492;42.646;23.400;2023-05-17T06:48:12;94538.44;;;17.50;65.89
22651;BME280;11492;42.646;23.400;2023-05-17T06:50:38;94542.84;;;17.61;66.05
22651;BME280;11492;42.646;23.400;2023-05-17T06:53:03;94537.13;;;17.64;66.07
22651;BME280;11492;42.646;23.400;2023-05-17T06:55:29;94542.66;;;17.79;65.45
22651;BME280;11492;42.646;23.400;2023-05-17T06:57:55;94545.59;;;17.82;65.58
22651;BME280;11492;42.646;23.400;2023-05-17T07:00:20;94539.78;;;17.92;65.84
22651;BME280;11492;42.646;23.400;2023-05-17T07:02:46;94549.88;;;17.99;65.74
22651;BME280;11492;42.646;23.400;2023-05-17T07:05:11;94551.00;;;18.03;65.66
22651;BME280;11492;42.646;23.400;2023-05-17T07:07:37;94562.38;;;17.98;64.94
22651;BME280;11492;42.646;23.400;2023-05-17T07:10:04;94555.16;;;17.77;65.70
22651;BME280;11492;42.646;23.400;2023-05-17T07:12:30;94552.56;;;17.77;65.95
22651;BME280;11492;42.646;23.400;2023-05-17T07:14:56;94561.44;;;17.76;65.91
22651;BME280;11492;42.646;23.400;2023-05-17T07:17:21;94552.59;;;17.66;66.42
22651;BME280;11492;42.646;23.400;2023-05-17T07:19:47;94562.56;;;17.69;66.32
22651;BME280;11492;42.646;23.400;2023-05-17T07:22:15;94559.91;;;17.80;66.55
22651;BME280;11492;42.646;23.400;2023-05-17T07:24:42;94557.72;;;17.88;66.40
22651;BME280;11492;42.646;23.400;2023-05-17T07:27:08;94562.38;;;17.98;65.64
22651;BME280;11492;42.646;23.400;2023-05-17T07:29:33;94565.53;;;17.99;65.28
22651;BME280;11492;42.646;23.400;2023-05-17T07:31:59;94563.81;;;18.05;65.52
22651;BME280;11492;42.646;23.400;2023-05-17T07:34:24;94565.41;;;17.95;65.77
22651;BME280;11492;42.646;23.400;2023-05-17T07:36:49;94570.78;;;17.99;65.91
22651;BME280;11492;42.646;23.400;2023-05-17T07:39:15;94576.16;;;17.82;65.47
22651;BME280;11492;42.646;23.400;2023-05-17T07:41:40;94572.38;;;17.89;65.72
22651;BME280;11492;42.646;23.400;2023-05-17T07:44:06;94570.66;;;17.95;65.81
22651;BME280;11492;42.646;23.400;2023-05-17T07:46:31;94575.56;;;17.91;65.91
22651;BME280;11492;42.646;23.400;2023-05-17T07:48:56;94569.75;;;17.89;66.44
22651;BME280;11492;42.646;23.400;2023-05-17T07:51:22;94569.19;;;17.98;66.53
22651;BME280;11492;42.646;23.400;2023-05-17T07:53:47;94566.13;;;18.01;65.85
22651;BME280;11492;42.646;23.400;2023-05-17T07:56:13;94568.53;;;17.92;66.25
22651;BME280;11492;42.646;23.400;2023-05-17T07:58:38;94568.94;;;18.00;66.08
22651;BME280;11492;42.646;23.400;2023-05-17T08:01:04;94569.53;;;18.02;66.33
22651;BME280;11492;42.646;23.400;2023-05-17T08:03:29;94574.78;;;18.18;66.39
22651;BME280;11492;42.646;23.400;2023-05-17T08:05:55;94568.22;;;18.32;65.82
22651;BME280;11492;42.646;23.400;2023-05-17T08:08:20;94569.94;;;18.54;65.04
22651;BME280;11492;42.646;23.400;2023-05-17T08:10:46;94554.41;;;18.64;64.23
22651;BME280;11492;42.646;23.400;2023-05-17T08:13:11;94564.47;;;18.88;63.81
22651;BME280;11492;42.646;23.400;2023-05-17T08:15:37;94562.56;;;18.99;63.59
22651;BME280;11492;42.646;23.400;2023-05-17T08:18:02;94561.19;;;19.13;62.99
22651;BME280;11492;42.646;23.400;2023-05-17T08:20:28;94550.00;;;19.18;62.39
22651;BME280;11492;42.646;23.400;2023-05-17T08:22:53;94562.44;;;19.27;62.80
22651;BME280;11492;42.646;23.400;2023-05-17T08:25:19;94558.31;;;19.31;61.85
22651;BME280;11492;42.646;23.400;2023-05-17T08:27:45;94550.59;;;19.41;61.76
22651;BME280;11492;42.646;23.400;2023-05-17T08:30:10;94550.63;;;19.46;61.98
22651;BME280;11492;42.646;23.400;2023-05-17T08:32:36;94549.22;;;19.59;62.28
22651;BME280;11492;42.646;23.400;2023-05-17T08:35:02;94546.78;;;19.69;61.18
22651;BME280;11492;42.646;23.400;2023-05-17T08:37:28;94545.03;;;19.58;61.48
22651;BME280;11492;42.646;23.400;2023-05-17T08:39:53;94548.59;;;19.69;61.78
22651;BME280;11492;42.646;23.400;2023-05-17T08:42:21;94556.91;;;19.66;61.11
22651;BME280;11492;42.646;23.400;2023-05-17T08:44:49;94558.13;;;19.58;61.86
22651;BME280;11492;42.646;23.400;2023-05-17T08:47:16;94554.72;;;19.58;62.90
22651;BME280;11492;42.646;23.400;2023-05-17T08:49:54;94540.91;;;19.62;62.78
22651;BME280;11492;42.646;23.400;2023-05-17T08:52:21;94545.19;;;19.68;63.42
22651;BME280;11492;42.646;23.400;2023-05-17T08:54:47;94537.94;;;19.75;63.52
22651;BME280;11492;42.646;23.400;2023-05-17T08:57:15;94545.31;;;19.78;63.18
22651;BME280;11492;42.646;23.400;2023-05-17T08:59:43;94543.22;;;19.80;63.17
22651;BME280;11492;42.646;23.400;2023-05-17T09:02:08;94550.03;;;19.81;63.05
22651;BME280;11492;42.646;23.400;2023-05-17T09:04:34;94549.97;;;19.76;62.56
22651;BME280;11492;42.646;23.400;2023-05-17T09:07:00;94549.44;;;19.74;62.67
22651;BME280;11492;42.646;23.400;2023-05-17T09:09:25;94546.28;;;19.72;62.80
22651;BME280;11492;42.646;23.400;2023-05-17T09:11:52;94538.34;;;19.67;63.04
22651;BME280;11492;42.646;23.400;2023-05-17T09:14:17;94538.34;;;19.67;62.60
22651;BME280;11492;42.646;23.400;2023-05-17T09:16:42;94532.19;;;19.57;62.08
22651;BME280;11492;42.646;23.400;2023-05-17T09:19:13;94526.84;;;19.68;62.17
22651;BME280;11492;42.646;23.400;2023-05-17T09:21:47;94535.00;;;19.72;61.95
22651;BME280;11492;42.646;23.400;2023-05-17T09:24:12;94538.78;;;19.80;61.58
22651;BME280;11492;42.646;23.400;2023-05-17T09:26:43;94543.88;;;19.92;61.61
22651;BME280;11492;42.646;23.400;2023-05-17T09:29:10;94546.31;;;19.98;61.19
22651;BME280;11492;42.646;23.400;2023-05-17T09:31:36;94537.47;;;20.04;60.50
22651;BME280;11492;42.646;23.400;2023-05-17T09:34:02;94527.78;;;20.04;60.80
22651;BME280;11492;42.646;23.400;2023-05-17T09:36:27;94533.84;;;20.10;61.07
22651;BME280;11492;42.646;23.400;2023-05-17T09:38:58;94537.91;;;20.22;60.94
22651;BME280;11492;42.646;23.400;2023-05-17T09:41:40;94543.88;;;20.44;60.12
22651;BME280;11492;42.646;23.400;2023-05-17T09:44:10;94555.63;;;20.62;59.71
22651;BME280;11492;42.646;23.400;2023-05-17T09:46:37;94556.63;;;20.56;58.90
22651;BME280;11492;42.646;23.400;2023-05-17T09:49:04;94555.72;;;20.20;58.58
22651;BME280;11492;42.646;23.400;2023-05-17T09:51:41;94555.41;;;20.17;58.87
22651;BME280;11492;42.646;23.400;2023-05-17T09:54:07;94553.84;;;20.16;59.60
22651;BME280;11492;42.646;23.400;2023-05-17T09:56:34;94550.78;;;19.98;59.47
22651;BME280;11492;42.646;23.400;2023-05-17T09:59:01;94548.25;;;19.65;60.43
22651;BME280;11492;42.646;23.400;2023-05-17T10:01:28;94547.28;;;19.92;60.03
22651;BME280;11492;42.646;23.400;2023-05-17T10:03:54;94550.09;;;19.86;59.18
22651;BME280;11492;42.646;23.400;2023-05-17T10:06:23;94549.44;;;19.74;59.71
22651;BME280;11492;42.646;23.400;2023-05-17T10:08:52;94539.72;;;19.53;60.85
22651;BME280;11492;42.646;23.400;2023-05-17T10:11:27;94538.75;;;19.38;60.68
22651;BME280;11492;42.646;23.400;2023-05-17T10:16:44;94537.81;;;19.07;62.76
22651;BME280;11492;42.646;23.400;2023-05-17T10:19:12;94535.28;;;18.96;62.75
22651;BME280;11492;42.646;23.400;2023-05-17T10:21:39;94520.22;;;18.86;63.15
22651;BME280;11492;42.646;23.400;2023-05-17T10:24:05;94516.81;;;18.86;63.31
22651;BME280;11492;42.646;23.400;2023-05-17T10:26:32;94503.50;;;18.87;63.72
22651;BME280;11492;42.646;23.400;2023-05-17T10:28:59;94491.44;;;18.86;63.77
22651;BME280;11492;42.646;23.400;2023-05-17T10:31:30;94479.53;;;18.95;63.50
22651;BME280;11492;42.646;23.400;2023-05-17T10:33:58;94475.84;;;19.12;63.41
22651;BME280;11492;42.646;23.400;2023-05-17T10:36:25;94469.09;;;19.16;63.20
22651;BME280;11492;42.646;23.400;2023-05-17T10:38:51;94466.47;;;19.16;63.24
22651;BME280;11492;42.646;23.400;2023-05-17T10:41:18;94454.75;;;19.02;63.67
22651;BME280;11492;42.646;23.400;2023-05-17T10:43:46;94432.91;;;18.92;63.28
22651;BME280;11492;42.646;23.400;2023-05-17T10:46:17;94428.47;;;18.93;63.04
22651;BME280;11492;42.646;23.400;2023-05-17T10:48:47;94430.03;;;18.94;62.06
22651;BME280;11492;42.646;23.400;2023-05-17T10:51:13;94410.06;;;18.88;62.43
22651;BME280;11492;42.646;23.400;2023-05-17T10:56:31;94403.06;;;18.93;63.19
22651;BME280;11492;42.646;23.400;2023-05-17T10:59:19;94400.38;;;19.09;62.58
22651;BME280;11492;42.646;23.400;2023-05-17T11:01:49;94398.19;;;19.23;61.51
22651;BME280;11492;42.646;23.400;2023-05-17T11:04:40;94400.31;;;19.47;61.22
22651;BME280;11492;42.646;23.400;2023-05-17T11:09:55;94388.34;;;19.81;60.83
22651;BME280;11492;42.646;23.400;2023-05-17T11:15:13;94404.06;;;20.12;60.76
22651;BME280;11492;42.646;23.400;2023-05-17T11:22:41;94425.81;;;20.13;60.84
22651;BME280;11492;42.646;23.400;2023-05-17T11:25:11;94428.44;;;20.13;60.28
22651;BME280;11492;42.646;23.400;2023-05-17T11:30:23;94451.47;;;20.37;60.63
22651;BME280;11492;42.646;23.400;2023-05-17T11:32:50;94448.09;;;20.41;60.81
22651;BME280;11492;42.646;23.400;2023-05-17T11:35:17;94452.09;;;20.48;60.93
22651;BME280;11492;42.646;23.400;2023-05-17T11:37:43;94459.97;;;20.48;60.60
22651;BME280;11492;42.646;23.400;2023-05-17T11:40:09;94461.22;;;20.41;60.16
22651;BME280;11492;42.646;23.400;2023-05-17T11:42:37;94467.00;;;20.43;59.61
22651;BME280;11492;42.646;23.400;2023-05-17T11:45:04;94472.88;;;20.50;58.86
22651;BME280;11492;42.646;23.400;2023-05-17T11:47:30;94466.66;;;20.61;57.90
22651;BME280;11492;42.646;23.400;2023-05-17T11:50:00;94468.81;;;20.43;57.35
22651;BME280;11492;42.646;23.400;2023-05-17T11:52:29;94469.78;;;20.32;57.80
22651;BME280;11492;42.646;23.400;2023-05-17T11:54:56;94476.13;;;20.36;57.13
22651;BME280;11492;42.646;23.400;2023-05-17T11:57:29;94473.63;;;20.20;57.17
22651;BME280;11492;42.646;23.400;2023-05-17T12:00:01;94477.56;;;20.22;57.58
22651;BME280;11492;42.646;23.400;2023-05-17T12:02:30;94482.81;;;20.22;57.72
22651;BME280;11492;42.646;23.400;2023-05-17T12:04:56;94476.25;;;20.20;58.02
22651;BME280;11492;42.646;23.400;2023-05-17T12:07:22;94473.91;;;20.23;57.78
22651;BME280;11492;42.646;23.400;2023-05-17T12:09:48;94483.47;;;20.34;57.44
22651;BME280;11492;42.646;23.400;2023-05-17T12:12:14;94487.38;;;20.31;57.76
22651;BME280;11492;42.646;23.400;2023-05-17T12:14:43;94479.09;;;20.18;57.90
22651;BME280;11492;42.646;23.400;2023-05-17T12:17:12;94483.66;;;20.27;57.79
22651;BME280;11492;42.646;23.400;2023-05-17T12:19:42;94476.63;;;20.33;57.32
22651;BME280;11492;42.646;23.400;2023-05-17T12:22:08;94473.50;;;20.36;57.23
22651;BME280;11492;42.646;23.400;2023-05-17T12:24:37;94470.34;;;20.34;56.55
22651;BME280;11492;42.646;23.400;2023-05-17T12:27:03;94474.00;;;20.33;56.65
22651;BME280;11492;42.646;23.400;2023-05-17T12:29:28;94469.25;;;20.30;56.59
22651;BME280;11492;42.646;23.400;2023-05-17T12:31:54;94469.47;;;20.23;56.93
22651;BME280;11492;42.646;23.400;2023-05-17T12:34:20;94466.56;;;20.20;56.97
22651;BME280;11492;42.646;23.400;2023-05-17T12:36:47;94455.50;;;20.13;57.79
22651;BME280;11492;42.646;23.400;2023-05-17T12:39:14;94459.38;;;20.11;58.78
22651;BME280;11492;42.646;23.400;2023-05-17T12:41:39;94454.66;;;20.08;58.20
22651;BME280;11492;42.646;23.400;2023-05-17T12:44:06;94455.69;;;20.07;59.12
22651;BME280;11492;42.646;23.400;2023-05-17T12:46:32;94450.09;;;19.98;59.36
22651;BME280;11492;42.646;23.400;2023-05-17T12:49:06;94456.88;;;19.95;59.21
22651;BME280;11492;42.646;23.400;2023-05-17T12:51:45;94448.97;;;19.90;59.04
22651;BME280;11492;42.646;23.400;2023-05-17T12:56:48;94450.75;;;19.84;60.10
22651;BME280;11492;42.646;23.400;2023-05-17T12:59:16;94447.41;;;19.89;60.74
22651;BME280;11492;42.646;23.400;2023-05-17T13:04:12;94453.97;;;19.91;59.97
22651;BME280;11492;42.646;23.400;2023-05-17T13:09:10;94465.16;;;20.13;59.46
22651;BME280;11492;42.646;23.400;2023-05-17T13:11:36;94463.09;;;20.15;59.13
22651;BME280;11492;42.646;23.400;2023-05-17T13:14:08;94462.34;;;19.88;58.96
22651;BME280;11492;42.646;23.400;2023-05-17T13:16:38;94468.56;;;19.82;59.64
22651;BME280;11492;42.646;23.400;2023-05-17T13:19:13;94462.13;;;19.69;58.94
22651;BME280;11492;42.646;23.400;2023-05-17T13:21:39;94466.53;;;19.42;59.80